sensor_id;sensor_type;location;lat;lon;timestamp;P1;durP1;ratioP1;P2;durP2;ratioP2
65393;SDS011;52002;49.760;6.512;2023-06-10T00:02:20;7.00;;;4.60;;
65393;SDS011;52002;49.760;6.512;2023-06-10T00:04:46;6.20;;;3.80;;
65393;SDS011;52002;49.760;6.512;2023-06-10T00:07:12;4.80;;;4.00;;
65393;SDS011;52002;49.760;6.512;2023-06-10T00:09:38;6.80;;;4.20;;
65393;SDS011;52002;49.760;6.512;2023-06-10T00:12:07;6.10;;;4.10;;
65393;SDS011;52002;49.760;6.512;2023-06-10T00:14:36;4.40;;;3.60;;
65393;SDS011;52002;49.760;6.512;2023-06-10T00:17:03;6.00;;;4.10;;
65393;SDS011;52002;49.760;6.512;2023-06-10T00:19:29;6.60;;;3.70;;
65393;SDS011;52002;49.760;6.512;2023-06-10T00:21:58;11.10;;;3.70;;
65393;SDS011;52002;49.760;6.512;2023-06-10T00:24:24;4.90;;;4.00;;
65393;SDS011;52002;49.760;6.512;2023-06-10T00:26:50;5.10;;;3.90;;
65393;SDS011;52002;49.760;6.512;2023-06-10T00:29:15;6.10;;;3.80;;
65393;SDS011;52002;49.760;6.512;2023-06-10T00:31:41;5.30;;;4.00;;
65393;SDS011;52002;49.760;6.512;2023-06-10T00:34:07;7.20;;;3.70;;
65393;SDS011;52002;49.760;6.512;2023-06-10T00:36:33;6.90;;;4.30;;
65393;SDS011;52002;49.760;6.512;2023-06-10T00:38:58;5.00;;;3.60;;
65393;SDS011;52002;49.760;6.512;2023-06-10T00:41:24;4.50;;;3.70;;
65393;SDS011;52002;49.760;6.512;2023-06-10T00:43:51;9.10;;;4.50;;
65393;SDS011;52002;49.760;6.512;2023-06-10T00:46:17;4.60;;;4.00;;
65393;SDS011;52002;49.760;6.512;2023-06-10T00:48:44;5.20;;;4.10;;
65393;SDS011;52002;49.760;6.512;2023-06-10T00:51:14;8.90;;;4.00;;
65393;SDS011;52002;49.760;6.512;2023-06-10T00:53:41;6.60;;;3.90;;
65393;SDS011;52002;49.760;6.512;2023-06-10T00:56:07;11.70;;;4.80;;
65393;SDS011;52002;49.760;6.512;2023-06-10T00:58:33;13.60;;;4.50;;
65393;SDS011;52002;49.760;6.512;2023-06-10T01:01:00;4.70;;;4.00;;
65393;SDS011;52002;49.760;6.512;2023-06-10T01:03:25;5.70;;;4.10;;
65393;SDS011;52002;49.760;6.512;2023-06-10T01:05:53;12.00;;;4.10;;
65393;SDS011;52002;49.760;6.512;2023-06-10T01:11:13;6.90;;;4.10;;
65393;SDS011;52002;49.760;6.512;2023-06-10T01:13:45;6.80;;;4.20;;
65393;SDS011;52002;49.760;6.512;2023-06-10T01:16:16;4.50;;;3.80;;
65393;SDS011;52002;49.760;6.512;2023-06-10T01:18:43;8.30;;;4.20;;
65393;SDS011;52002;49.760;6.512;2023-06-10T01:21:12;5.40;;;3.80;;
65393;SDS011;52002;49.760;6.512;2023-06-10T01:23:38;5.70;;;4.00;;
65393;SDS011;52002;49.760;6.512;2023-06-10T01:26:09;7.50;;;4.00;;
65393;SDS011;52002;49.760;6.512;2023-06-10T01:28:38;5.90;;;4.30;;
65393;SDS011;52002;49.760;6.512;2023-06-10T01:36:10;4.50;;;3.60;;
65393;SDS011;52002;49.760;6.512;2023-06-10T01:38:39;6.60;;;3.80;;
65393;SDS011;52002;49.760;6.512;2023-06-10T01:41:07;6.30;;;4.00;;
65393;SDS011;52002;49.760;6.512;2023-06-10T01:43:34;6.20;;;4.40;;
65393;SDS011;52002;49.760;6.512;2023-06-10T01:46:02;5.30;;;4.10;;
65393;SDS011;52002;49.760;6.512;2023-06-10T01:48:27;5.20;;;4.10;;
65393;SDS011;52002;49.760;6.512;2023-06-10T01:50:52;7.20;;;3.80;;
65393;SDS011;52002;49.760;6.512;2023-06-10T01:53:19;7.40;;;4.10;;
65393;SDS011;52002;49.760;6.512;2023-06-10T01:55:45;4.50;;;3.70;;
65393;SDS011;52002;49.760;6.512;2023-06-10T01:58:10;11.80;;;4.00;;
65393;SDS011;52002;49.760;6.512;2023-06-10T02:00:35;4.80;;;4.20;;
65393;SDS011;52002;49.760;6.512;2023-06-10T02:03:01;6.30;;;4.10;;
65393;SDS011;52002;49.760;6.512;2023-06-10T02:05:26;7.70;;;3.90;;
65393;SDS011;52002;49.760;6.512;2023-06-10T02:07:51;4.30;;;3.80;;
65393;SDS011;52002;49.760;6.512;2023-06-10T02:10:17;6.40;;;3.80;;
65393;SDS011;52002;49.760;6.512;2023-06-10T02:12:42;6.00;;;4.10;;
65393;SDS011;52002;49.760;6.512;2023-06-10T02:15:07;6.40;;;4.50;;
65393;SDS011;52002;49.760;6.512;2023-06-10T02:17:33;3.90;;;3.50;;
65393;SDS011;52002;49.760;6.512;2023-06-10T02:19:58;5.70;;;3.80;;
65393;SDS011;52002;49.760;6.512;2023-06-10T02:22:25;4.60;;;4.10;;
65393;SDS011;52002;49.760;6.512;2023-06-10T02:24:50;9.70;;;4.70;;
65393;SDS011;52002;49.760;6.512;2023-06-10T02:27:16;6.80;;;4.10;;
65393;SDS011;52002;49.760;6.512;2023-06-10T02:29:43;9.10;;;4.30;;
65393;SDS011;52002;49.760;6.512;2023-06-10T02:32:08;5.00;;;4.40;;
65393;SDS011;52002;49.760;6.512;2023-06-10T02:34:35;6.70;;;4.40;;
65393;SDS011;52002;49.760;6.512;2023-06-10T02:37:01;8.90;;;4.90;;
65393;SDS011;52002;49.760;6.512;2023-06-10T02:39:27;5.00;;;4.20;;
65393;SDS011;52002;49.760;6.512;2023-06-10T02:41:53;5.50;;;4.30;;
65393;SDS011;52002;49.760;6.512;2023-06-10T02:44:18;10.10;;;4.40;;
65393;SDS011;52002;49.760;6.512;2023-06-10T02:46:44;7.50;;;4.20;;
65393;SDS011;52002;49.760;6.512;2023-06-10T02:49:10;5.80;;;4.40;;
65393;SDS011;52002;49.760;6.512;2023-06-10T02:51:36;5.00;;;4.30;;
65393;SDS011;52002;49.760;6.512;2023-06-10T02:54:02;9.10;;;4.20;;
65393;SDS011;52002;49.760;6.512;2023-06-10T02:56:27;6.80;;;4.10;;
65393;SDS011;52002;49.760;6.512;2023-06-10T02:58:53;5.40;;;4.20;;
65393;SDS011;52002;49.760;6.512;2023-06-10T03:01:18;9.20;;;4.80;;
65393;SDS011;52002;49.760;6.512;2023-06-10T03:03:44;6.70;;;4.60;;
65393;SDS011;52002;49.760;6.512;2023-06-10T03:06:11;6.80;;;4.60;;
65393;SDS011;52002;49.760;6.512;2023-06-10T03:08:37;6.40;;;4.60;;
65393;SDS011;52002;49.760;6.512;2023-06-10T03:11:03;9.80;;;4.20;;
65393;SDS011;52002;49.760;6.512;2023-06-10T03:13:29;6.60;;;4.30;;
65393;SDS011;52002;49.760;6.512;2023-06-10T03:15:54;8.80;;;4.30;;
65393;SDS011;52002;49.760;6.512;2023-06-10T03:18:20;6.70;;;4.60;;
65393;SDS011;52002;49.760;6.512;2023-06-10T03:20:45;11.40;;;4.90;;
65393;SDS011;52002;49.760;6.512;2023-06-10T03:23:11;6.40;;;4.20;;
65393;SDS011;52002;49.760;6.512;2023-06-10T03:25:36;10.30;;;4.80;;
65393;SDS011;52002;49.760;6.512;2023-06-10T03:28:02;11.00;;;5.20;;
65393;SDS011;52002;49.760;6.512;2023-06-10T03:30:27;9.30;;;4.50;;
65393;SDS011;52002;49.760;6.512;2023-06-10T03:32:53;9.10;;;4.40;;
65393;SDS011;52002;49.760;6.512;2023-06-10T03:35:18;6.10;;;4.30;;
65393;SDS011;52002;49.760;6.512;2023-06-10T03:37:44;6.00;;;4.20;;
65393;SDS011;52002;49.760;6.512;2023-06-10T03:40:09;6.50;;;4.40;;
65393;SDS011;52002;49.760;6.512;2023-06-10T03:42:35;7.40;;;4.80;;
65393;SDS011;52002;49.760;6.512;2023-06-10T03:45:00;8.90;;;4.60;;
65393;SDS011;52002;49.760;6.512;2023-06-10T03:47:29;5.90;;;4.30;;
65393;SDS011;52002;49.760;6.512;2023-06-10T03:50:00;7.20;;;4.70;;
65393;SDS011;52002;49.760;6.512;2023-06-10T03:52:25;7.60;;;5.10;;
65393;SDS011;52002;49.760;6.512;2023-06-10T03:54:50;9.30;;;4.90;;
65393;SDS011;52002;49.760;6.512;2023-06-10T03:57:16;8.40;;;4.80;;
65393;SDS011;52002;49.760;6.512;2023-06-10T03:59:41;6.20;;;4.10;;
65393;SDS011;52002;49.760;6.512;2023-06-10T04:02:06;6.00;;;4.60;;
65393;SDS011;52002;49.760;6.512;2023-06-10T04:04:34;7.50;;;4.70;;
65393;SDS011;52002;49.760;6.512;2023-06-10T04:06:59;8.20;;;4.20;;
65393;SDS011;52002;49.760;6.512;2023-06-10T04:09:25;5.70;;;4.40;;
65393;SDS011;52002;49.760;6.512;2023-06-10T04:11:50;6.00;;;4.50;;
65393;SDS011;52002;49.760;6.512;2023-06-10T04:14:16;8.70;;;5.40;;
65393;SDS011;52002;49.760;6.512;2023-06-10T04:16:41;6.60;;;4.60;;
65393;SDS011;52002;49.760;6.512;2023-06-10T04:19:07;7.10;;;4.40;;
65393;SDS011;52002;49.760;6.512;2023-06-10T04:21:33;6.40;;;4.50;;
65393;SDS011;52002;49.760;6.512;2023-06-10T04:23:58;10.40;;;4.50;;
65393;SDS011;52002;49.760;6.512;2023-06-10T04:26:24;7.10;;;4.10;;
65393;SDS011;52002;49.760;6.512;2023-06-10T04:28:50;7.00;;;4.10;;
65393;SDS011;52002;49.760;6.512;2023-06-10T04:31:16;6.90;;;4.10;;
65393;SDS011;52002;49.760;6.512;2023-06-10T04:33:41;7.30;;;4.70;;
65393;SDS011;52002;49.760;6.512;2023-06-10T04:36:07;10.70;;;5.20;;
65393;SDS011;52002;49.760;6.512;2023-06-10T04:38:32;6.00;;;4.60;;
65393;SDS011;52002;49.760;6.512;2023-06-10T04:40:57;9.00;;;4.80;;
65393;SDS011;52002;49.760;6.512;2023-06-10T04:43:23;10.20;;;4.80;;
65393;SDS011;52002;49.760;6.512;2023-06-10T04:45:48;5.50;;;4.60;;
65393;SDS011;52002;49.760;6.512;2023-06-10T04:48:14;7.60;;;4.60;;
65393;SDS011;52002;49.760;6.512;2023-06-10T04:50:40;6.00;;;4.50;;
65393;SDS011;52002;49.760;6.512;2023-06-10T04:53:05;7.10;;;4.80;;
65393;SDS011;52002;49.760;6.512;2023-06-10T04:55:31;10.00;;;4.70;;
65393;SDS011;52002;49.760;6.512;2023-06-10T04:57:58;6.00;;;4.60;;
65393;SDS011;52002;49.760;6.512;2023-06-10T05:00:24;7.50;;;4.50;;
65393;SDS011;52002;49.760;6.512;2023-06-10T05:02:49;4.70;;;4.00;;
65393;SDS011;52002;49.760;6.512;2023-06-10T05:05:17;6.10;;;4.80;;
65393;SDS011;52002;49.760;6.512;2023-06-10T05:07:43;5.20;;;4.50;;
65393;SDS011;52002;49.760;6.512;2023-06-10T05:10:09;9.30;;;5.10;;
65393;SDS011;52002;49.760;6.512;2023-06-10T05:12:35;5.40;;;4.90;;
65393;SDS011;52002;49.760;6.512;2023-06-10T05:15:00;11.10;;;4.70;;
65393;SDS011;52002;49.760;6.512;2023-06-10T05:17:26;7.60;;;4.80;;
65393;SDS011;52002;49.760;6.512;2023-06-10T05:19:52;8.70;;;4.60;;
65393;SDS011;52002;49.760;6.512;2023-06-10T05:22:18;12.30;;;4.60;;
65393;SDS011;52002;49.760;6.512;2023-06-10T05:24:43;6.70;;;4.70;;
65393;SDS011;52002;49.760;6.512;2023-06-10T05:27:10;6.30;;;4.00;;
65393;SDS011;52002;49.760;6.512;2023-06-10T05:29:35;5.30;;;4.80;;
65393;SDS011;52002;49.760;6.512;2023-06-10T05:32:01;11.20;;;4.40;;
65393;SDS011;52002;49.760;6.512;2023-06-10T05:34:31;6.90;;;4.30;;
65393;SDS011;52002;49.760;6.512;2023-06-10T05:36:57;6.30;;;4.10;;
65393;SDS011;52002;49.760;6.512;2023-06-10T05:39:22;4.90;;;4.30;;
65393;SDS011;52002;49.760;6.512;2023-06-10T05:41:48;4.80;;;4.30;;
65393;SDS011;52002;49.760;6.512;2023-06-10T05:44:13;4.80;;;3.70;;
65393;SDS011;52002;49.760;6.512;2023-06-10T05:46:39;5.10;;;4.10;;
65393;SDS011;52002;49.760;6.512;2023-06-10T05:49:05;8.50;;;4.40;;
65393;SDS011;52002;49.760;6.512;2023-06-10T05:51:30;4.30;;;4.00;;
65393;SDS011;52002;49.760;6.512;2023-06-10T05:53:55;7.30;;;4.40;;
65393;SDS011;52002;49.760;6.512;2023-06-10T05:56:21;4.10;;;3.70;;
65393;SDS011;52002;49.760;6.512;2023-06-10T05:58:50;5.00;;;4.00;;
65393;SDS011;52002;49.760;6.512;2023-06-10T06:01:16;7.70;;;4.30;;
65393;SDS011;52002;49.760;6.512;2023-06-10T06:03:41;9.10;;;3.90;;
65393;SDS011;52002;49.760;6.512;2023-06-10T06:06:09;7.40;;;4.00;;
65393;SDS011;52002;49.760;6.512;2023-06-10T06:08:34;6.30;;;4.20;;
65393;SDS011;52002;49.760;6.512;2023-06-10T06:11:00;8.40;;;4.80;;
65393;SDS011;52002;49.760;6.512;2023-06-10T06:13:25;5.10;;;4.30;;
65393;SDS011;52002;49.760;6.512;2023-06-10T06:15:51;8.00;;;4.40;;
65393;SDS011;52002;49.760;6.512;2023-06-10T06:18:16;6.90;;;4.10;;
65393;SDS011;52002;49.760;6.512;2023-06-10T06:20:43;7.30;;;4.40;;
65393;SDS011;52002;49.760;6.512;2023-06-10T06:23:09;6.90;;;4.90;;
65393;SDS011;52002;49.760;6.512;2023-06-10T06:25:36;5.80;;;4.90;;
65393;SDS011;52002;49.760;6.512;2023-06-10T06:28:04;5.80;;;5.30;;
65393;SDS011;52002;49.760;6.512;2023-06-10T06:30:31;6.90;;;5.00;;
65393;SDS011;52002;49.760;6.512;2023-06-10T06:32:57;5.70;;;5.30;;
65393;SDS011;52002;49.760;6.512;2023-06-10T06:35:22;6.60;;;6.00;;
65393;SDS011;52002;49.760;6.512;2023-06-10T06:37:47;11.00;;;6.40;;
65393;SDS011;52002;49.760;6.512;2023-06-10T06:40:13;6.90;;;6.30;;
65393;SDS011;52002;49.760;6.512;2023-06-10T06:42:38;11.20;;;6.70;;
65393;SDS011;52002;49.760;6.512;2023-06-10T06:45:04;9.20;;;6.80;;
65393;SDS011;52002;49.760;6.512;2023-06-10T06:47:30;11.20;;;7.60;;
65393;SDS011;52002;49.760;6.512;2023-06-10T06:49:55;12.90;;;8.00;;
65393;SDS011;52002;49.760;6.512;2023-06-10T06:52:21;9.80;;;8.90;;
65393;SDS011;52002;49.760;6.512;2023-06-10T06:54:47;11.80;;;9.20;;
65393;SDS011;52002;49.760;6.512;2023-06-10T06:57:13;10.00;;;9.20;;
65393;SDS011;52002;49.760;6.512;2023-06-10T06:59:38;9.50;;;8.80;;
65393;SDS011;52002;49.760;6.512;2023-06-10T07:02:03;10.30;;;9.40;;
65393;SDS011;52002;49.760;6.512;2023-06-10T07:04:29;10.90;;;9.80;;
65393;SDS011;52002;49.760;6.512;2023-06-10T07:06:55;11.70;;;10.80;;
65393;SDS011;52002;49.760;6.512;2023-06-10T07:09:20;11.40;;;10.50;;
65393;SDS011;52002;49.760;6.512;2023-06-10T07:11:46;12.40;;;11.30;;
65393;SDS011;52002;49.760;6.512;2023-06-10T07:14:11;15.10;;;13.30;;
65393;SDS011;52002;49.760;6.512;2023-06-10T07:16:36;12.40;;;11.40;;
65393;SDS011;52002;49.760;6.512;2023-06-10T07:19:02;14.70;;;13.40;;
65393;SDS011;52002;49.760;6.512;2023-06-10T07:21:27;14.10;;;13.00;;
65393;SDS011;52002;49.760;6.512;2023-06-10T07:23:53;15.70;;;14.60;;
65393;SDS011;52002;49.760;6.512;2023-06-10T07:26:19;18.80;;;17.30;;
65393;SDS011;52002;49.760;6.512;2023-06-10T07:28:46;17.90;;;16.40;;
65393;SDS011;52002;49.760;6.512;2023-06-10T07:31:12;17.80;;;16.50;;
65393;SDS011;52002;49.760;6.512;2023-06-10T07:33:37;20.30;;;18.90;;
65393;SDS011;52002;49.760;6.512;2023-06-10T07:36:04;22.00;;;20.40;;
65393;SDS011;52002;49.760;6.512;2023-06-10T07:38:31;24.80;;;23.00;;
65393;SDS011;52002;49.760;6.512;2023-06-10T07:40:56;24.30;;;22.50;;
65393;SDS011;52002;49.760;6.512;2023-06-10T07:43:22;24.80;;;22.40;;
65393;SDS011;52002;49.760;6.512;2023-06-10T07:48:15;27.30;;;25.50;;
65393;SDS011;52002;49.760;6.512;2023-06-10T07:50:40;26.30;;;24.40;;
65393;SDS011;52002;49.760;6.512;2023-06-10T07:53:06;28.70;;;26.80;;
65393;SDS011;52002;49.760;6.512;2023-06-10T07:55:31;26.20;;;24.40;;
65393;SDS011;52002;49.760;6.512;2023-06-10T07:57:57;25.50;;;23.90;;
65393;SDS011;52002;49.760;6.512;2023-06-10T08:00:22;23.50;;;22.00;;
65393;SDS011;52002;49.760;6.512;2023-06-10T08:02:47;21.60;;;20.30;;
65393;SDS011;52002;49.760;6.512;2023-06-10T08:05:13;21.30;;;20.00;;
65393;SDS011;52002;49.760;6.512;2023-06-10T08:07:39;20.20;;;18.80;;
65393;SDS011;52002;49.760;6.512;2023-06-10T08:10:05;17.00;;;15.90;;
65393;SDS011;52002;49.760;6.512;2023-06-10T08:12:31;17.00;;;15.90;;
65393;SDS011;52002;49.760;6.512;2023-06-10T08:15:00;15.90;;;14.80;;
65393;SDS011;52002;49.760;6.512;2023-06-10T08:19:53;13.60;;;12.70;;
65393;SDS011;52002;49.760;6.512;2023-06-10T08:22:19;13.50;;;12.60;;
65393;SDS011;52002;49.760;6.512;2023-06-10T08:24:44;11.80;;;10.90;;
65393;SDS011;52002;49.760;6.512;2023-06-10T08:27:09;12.00;;;10.90;;
65393;SDS011;52002;49.760;6.512;2023-06-10T08:29:35;10.90;;;10.20;;
65393;SDS011;52002;49.760;6.512;2023-06-10T08:32:00;9.70;;;9.10;;
65393;SDS011;52002;49.760;6.512;2023-06-10T08:34:26;12.90;;;9.00;;
65393;SDS011;52002;49.760;6.512;2023-06-10T08:36:51;8.70;;;7.90;;
65393;SDS011;52002;49.760;6.512;2023-06-10T08:39:20;8.40;;;7.70;;
65393;SDS011;52002;49.760;6.512;2023-06-10T08:42:33;7.90;;;7.30;;
65393;SDS011;52002;49.760;6.512;2023-06-10T08:44:58;9.60;;;6.10;;
65393;SDS011;52002;49.760;6.512;2023-06-10T08:47:26;6.10;;;5.60;;
65393;SDS011;52002;49.760;6.512;2023-06-10T08:49:56;12.50;;;5.10;;
65393;SDS011;52002;49.760;6.512;2023-06-10T08:52:28;5.10;;;4.60;;
65393;SDS011;52002;49.760;6.512;2023-06-10T08:54:59;5.90;;;4.40;;
65393;SDS011;52002;49.760;6.512;2023-06-10T08:59:56;6.90;;;3.40;;
65393;SDS011;52002;49.760;6.512;2023-06-10T09:02:22;6.20;;;3.80;;
65393;SDS011;52002;49.760;6.512;2023-06-10T09:04:49;3.80;;;3.20;;
65393;SDS011;52002;49.760;6.512;2023-06-10T09:07:15;4.50;;;3.00;;
65393;SDS011;52002;49.760;6.512;2023-06-10T09:09:42;3.20;;;2.90;;
65393;SDS011;52002;49.760;6.512;2023-06-10T09:12:08;8.20;;;3.20;;
65393;SDS011;52002;49.760;6.512;2023-06-10T09:14:34;3.80;;;2.80;;
65393;SDS011;52002;49.760;6.512;2023-06-10T09:17:00;5.40;;;2.90;;
65393;SDS011;52002;49.760;6.512;2023-06-10T09:19:26;3.90;;;3.00;;
65393;SDS011;52002;49.760;6.512;2023-06-10T09:21:53;7.40;;;3.10;;
65393;SDS011;52002;49.760;6.512;2023-06-10T09:24:19;4.50;;;3.10;;
65393;SDS011;52002;49.760;6.512;2023-06-10T09:26:47;4.10;;;3.00;;
65393;SDS011;52002;49.760;6.512;2023-06-10T09:29:13;4.50;;;3.00;;
65393;SDS011;52002;49.760;6.512;2023-06-10T09:31:39;4.80;;;2.80;;
65393;SDS011;52002;49.760;6.512;2023-06-10T09:34:12;6.10;;;3.20;;
65393;SDS011;52002;49.760;6.512;2023-06-10T09:36:40;5.60;;;2.80;;
65393;SDS011;52002;49.760;6.512;2023-06-10T09:39:16;3.60;;;2.50;;
65393;SDS011;52002;49.760;6.512;2023-06-10T09:41:42;6.30;;;2.80;;
65393;SDS011;52002;49.760;6.512;2023-06-10T09:44:13;3.60;;;2.90;;
65393;SDS011;52002;49.760;6.512;2023-06-10T09:49:06;7.20;;;3.00;;
65393;SDS011;52002;49.760;6.512;2023-06-10T09:51:32;6.00;;;3.00;;
65393;SDS011;52002;49.760;6.512;2023-06-10T09:53:57;7.40;;;2.90;;
65393;SDS011;52002;49.760;6.512;2023-06-10T09:56:34;4.40;;;2.90;;
65393;SDS011;52002;49.760;6.512;2023-06-10T09:59:00;5.70;;;2.80;;
65393;SDS011;52002;49.760;6.512;2023-06-10T10:01:27;4.80;;;3.00;;
65393;SDS011;52002;49.760;6.512;2023-06-10T10:03:53;5.00;;;2.50;;
65393;SDS011;52002;49.760;6.512;2023-06-10T10:06:19;3.70;;;2.70;;
65393;SDS011;52002;49.760;6.512;2023-06-10T10:08:46;6.10;;;3.20;;
65393;SDS011;52002;49.760;6.512;2023-06-10T10:11:12;6.30;;;2.70;;
65393;SDS011;52002;49.760;6.512;2023-06-10T10:13:41;6.50;;;3.00;;
65393;SDS011;52002;49.760;6.512;2023-06-10T10:16:11;4.30;;;2.80;;
65393;SDS011;52002;49.760;6.512;2023-06-10T10:18:43;5.30;;;2.70;;
65393;SDS011;52002;49.760;6.512;2023-06-10T10:21:14;5.10;;;3.30;;
65393;SDS011;52002;49.760;6.512;2023-06-10T10:23:45;3.20;;;2.90;;
65393;SDS011;52002;49.760;6.512;2023-06-10T10:26:34;4.80;;;2.60;;
65393;SDS011;52002;49.760;6.512;2023-06-10T10:29:16;5.50;;;3.30;;
65393;SDS011;52002;49.760;6.512;2023-06-10T10:31:50;4.10;;;2.80;;
65393;SDS011;52002;49.760;6.512;2023-06-10T10:34:34;9.60;;;2.80;;
65393;SDS011;52002;49.760;6.512;2023-06-10T10:37:07;4.30;;;3.00;;
65393;SDS011;52002;49.760;6.512;2023-06-10T10:39:33;5.60;;;3.00;;
65393;SDS011;52002;49.760;6.512;2023-06-10T10:42:00;6.50;;;2.90;;
65393;SDS011;52002;49.760;6.512;2023-06-10T10:44:28;3.80;;;3.00;;
65393;SDS011;52002;49.760;6.512;2023-06-10T10:46:54;6.80;;;3.10;;
65393;SDS011;52002;49.760;6.512;2023-06-10T10:49:21;5.50;;;3.10;;
65393;SDS011;52002;49.760;6.512;2023-06-10T10:51:56;4.30;;;2.90;;
65393;SDS011;52002;49.760;6.512;2023-06-10T10:54:31;4.60;;;2.80;;
65393;SDS011;52002;49.760;6.512;2023-06-10T10:57:14;13.20;;;3.20;;
65393;SDS011;52002;49.760;6.512;2023-06-10T11:02:31;3.20;;;2.60;;
65393;SDS011;52002;49.760;6.512;2023-06-10T11:05:04;5.90;;;2.80;;
65393;SDS011;52002;49.760;6.512;2023-06-10T11:07:31;6.80;;;2.70;;
65393;SDS011;52002;49.760;6.512;2023-06-10T11:10:15;2.70;;;2.40;;
65393;SDS011;52002;49.760;6.512;2023-06-10T11:12:53;3.10;;;2.60;;
65393;SDS011;52002;49.760;6.512;2023-06-10T11:15:23;4.90;;;2.60;;
65393;SDS011;52002;49.760;6.512;2023-06-10T11:18:09;5.80;;;2.60;;
65393;SDS011;52002;49.760;6.512;2023-06-10T11:20:44;3.80;;;2.40;;
65393;SDS011;52002;49.760;6.512;2023-06-10T11:28:42;3.40;;;2.30;;
65393;SDS011;52002;49.760;6.512;2023-06-10T11:31:31;6.80;;;2.40;;
65393;SDS011;52002;49.760;6.512;2023-06-10T11:33:58;3.70;;;2.40;;
65393;SDS011;52002;49.760;6.512;2023-06-10T11:36:24;6.40;;;2.30;;
65393;SDS011;52002;49.760;6.512;2023-06-10T11:38:58;4.60;;;2.20;;
65393;SDS011;52002;49.760;6.512;2023-06-10T11:41:26;7.30;;;2.30;;
65393;SDS011;52002;49.760;6.512;2023-06-10T11:43:52;3.50;;;1.90;;
65393;SDS011;52002;49.760;6.512;2023-06-10T11:46:20;5.50;;;2.30;;
65393;SDS011;52002;49.760;6.512;2023-06-10T11:48:52;4.40;;;2.40;;
65393;SDS011;52002;49.760;6.512;2023-06-10T11:51:19;4.20;;;2.40;;
65393;SDS011;52002;49.760;6.512;2023-06-10T11:53:48;2.60;;;2.10;;
65393;SDS011;52002;49.760;6.512;2023-06-10T11:56:25;2.80;;;2.20;;
65393;SDS011;52002;49.760;6.512;2023-06-10T12:01:23;4.00;;;2.50;;
65393;SDS011;52002;49.760;6.512;2023-06-10T12:03:56;2.90;;;2.00;;
65393;SDS011;52002;49.760;6.512;2023-06-10T12:06:23;2.90;;;2.10;;
65393;SDS011;52002;49.760;6.512;2023-06-10T12:08:49;7.70;;;2.20;;
65393;SDS011;52002;49.760;6.512;2023-06-10T12:11:14;7.30;;;2.10;;
65393;SDS011;52002;49.760;6.512;2023-06-10T12:13:45;4.90;;;2.00;;
65393;SDS011;52002;49.760;6.512;2023-06-10T12:16:15;2.40;;;2.10;;
65393;SDS011;52002;49.760;6.512;2023-06-10T12:18:43;3.70;;;2.30;;
65393;SDS011;52002;49.760;6.512;2023-06-10T12:21:16;1.90;;;1.70;;
65393;SDS011;52002;49.760;6.512;2023-06-10T12:24:01;4.70;;;1.90;;
65393;SDS011;52002;49.760;6.512;2023-06-10T12:26:34;2.70;;;1.80;;
65393;SDS011;52002;49.760;6.512;2023-06-10T12:29:01;4.00;;;2.20;;
65393;SDS011;52002;49.760;6.512;2023-06-10T12:31:56;4.30;;;2.20;;
65393;SDS011;52002;49.760;6.512;2023-06-10T12:34:32;5.40;;;2.30;;
65393;SDS011;52002;49.760;6.512;2023-06-10T12:37:00;4.80;;;2.20;;
65393;SDS011;52002;49.760;6.512;2023-06-10T12:39:27;2.20;;;2.00;;
65393;SDS011;52002;49.760;6.512;2023-06-10T12:41:54;2.30;;;2.10;;
65393;SDS011;52002;49.760;6.512;2023-06-10T12:44:41;8.00;;;2.00;;
65393;SDS011;52002;49.760;6.512;2023-06-10T12:47:09;2.90;;;2.10;;
65393;SDS011;52002;49.760;6.512;2023-06-10T12:52:02;3.00;;;1.80;;
65393;SDS011;52002;49.760;6.512;2023-06-10T12:54:28;6.50;;;2.20;;
65393;SDS011;52002;49.760;6.512;2023-06-10T12:56:54;3.80;;;2.10;;
65393;SDS011;52002;49.760;6.512;2023-06-10T12:59:19;5.10;;;2.60;;
65393;SDS011;52002;49.760;6.512;2023-06-10T13:01:49;2.50;;;2.00;;
65393;SDS011;52002;49.760;6.512;2023-06-10T13:04:18;7.10;;;2.20;;
65393;SDS011;52002;49.760;6.512;2023-06-10T13:06:44;3.90;;;2.10;;
65393;SDS011;52002;49.760;6.512;2023-06-10T13:09:12;6.00;;;2.40;;
65393;SDS011;52002;49.760;6.512;2023-06-10T13:11:38;2.80;;;1.80;;
65393;SDS011;52002;49.760;6.512;2023-06-10T13:14:04;6.50;;;2.20;;
65393;SDS011;52002;49.760;6.512;2023-06-10T13:16:30;2.90;;;2.20;;
65393;SDS011;52002;49.760;6.512;2023-06-10T13:18:56;3.80;;;2.30;;
65393;SDS011;52002;49.760;6.512;2023-06-10T13:21:22;2.60;;;2.20;;
65393;SDS011;52002;49.760;6.512;2023-06-10T13:23:48;4.20;;;2.20;;
65393;SDS011;52002;49.760;6.512;2023-06-10T13:26:16;4.20;;;2.10;;
65393;SDS011;52002;49.760;6.512;2023-06-10T13:28:43;4.30;;;2.20;;
65393;SDS011;52002;49.760;6.512;2023-06-10T13:31:09;2.60;;;2.30;;
65393;SDS011;52002;49.760;6.512;2023-06-10T13:33:34;5.70;;;2.30;;
65393;SDS011;52002;49.760;6.512;2023-06-10T13:36:00;4.40;;;2.20;;
65393;SDS011;52002;49.760;6.512;2023-06-10T13:38:25;8.50;;;2.70;;
65393;SDS011;52002;49.760;6.512;2023-06-10T13:40:52;3.90;;;2.50;;
65393;SDS011;52002;49.760;6.512;2023-06-10T13:43:17;2.40;;;2.20;;
65393;SDS011;52002;49.760;6.512;2023-06-10T13:45:42;3.00;;;2.60;;
65393;SDS011;52002;49.760;6.512;2023-06-10T13:48:08;5.80;;;2.10;;
65393;SDS011;52002;49.760;6.512;2023-06-10T13:50:33;4.00;;;2.40;;
65393;SDS011;52002;49.760;6.512;2023-06-10T13:52:58;5.60;;;2.10;;
65393;SDS011;52002;49.760;6.512;2023-06-10T13:55:24;5.00;;;2.40;;
65393;SDS011;52002;49.760;6.512;2023-06-10T13:57:49;3.40;;;2.10;;
65393;SDS011;52002;49.760;6.512;2023-06-10T14:00:15;4.60;;;2.30;;
65393;SDS011;52002;49.760;6.512;2023-06-10T14:02:41;5.70;;;2.20;;
65393;SDS011;52002;49.760;6.512;2023-06-10T14:05:07;5.30;;;2.30;;
65393;SDS011;52002;49.760;6.512;2023-06-10T14:07:33;4.10;;;2.50;;
65393;SDS011;52002;49.760;6.512;2023-06-10T14:09:59;4.90;;;2.20;;
65393;SDS011;52002;49.760;6.512;2023-06-10T14:12:24;3.80;;;2.20;;
65393;SDS011;52002;49.760;6.512;2023-06-10T14:14:50;4.40;;;2.30;;
65393;SDS011;52002;49.760;6.512;2023-06-10T14:17:15;5.50;;;2.50;;
65393;SDS011;52002;49.760;6.512;2023-06-10T14:19:40;8.70;;;2.70;;
65393;SDS011;52002;49.760;6.512;2023-06-10T14:22:06;3.30;;;2.20;;
65393;SDS011;52002;49.760;6.512;2023-06-10T14:24:32;3.50;;;2.20;;
65393;SDS011;52002;49.760;6.512;2023-06-10T14:26:58;3.20;;;2.80;;
65393;SDS011;52002;49.760;6.512;2023-06-10T14:29:23;9.10;;;2.50;;
65393;SDS011;52002;49.760;6.512;2023-06-10T14:31:52;2.90;;;2.60;;
65393;SDS011;52002;49.760;6.512;2023-06-10T14:34:17;2.40;;;2.10;;
65393;SDS011;52002;49.760;6.512;2023-06-10T14:36:43;5.50;;;2.40;;
65393;SDS011;52002;49.760;6.512;2023-06-10T14:39:08;5.90;;;2.50;;
65393;SDS011;52002;49.760;6.512;2023-06-10T14:41:33;3.20;;;2.30;;
65393;SDS011;52002;49.760;6.512;2023-06-10T14:43:59;2.60;;;2.00;;
65393;SDS011;52002;49.760;6.512;2023-06-10T14:46:24;5.70;;;2.70;;
65393;SDS011;52002;49.760;6.512;2023-06-10T14:48:50;3.20;;;2.20;;
65393;SDS011;52002;49.760;6.512;2023-06-10T14:51:16;2.60;;;2.30;;
65393;SDS011;52002;49.760;6.512;2023-06-10T14:53:41;4.60;;;2.60;;
65393;SDS011;52002;49.760;6.512;2023-06-10T14:56:06;5.70;;;2.20;;
65393;SDS011;52002;49.760;6.512;2023-06-10T14:58:32;4.00;;;2.50;;
65393;SDS011;52002;49.760;6.512;2023-06-10T15:00:57;5.50;;;2.40;;
65393;SDS011;52002;49.760;6.512;2023-06-10T15:03:22;3.30;;;2.00;;
65393;SDS011;52002;49.760;6.512;2023-06-10T15:05:48;7.90;;;2.20;;
65393;SDS011;52002;49.760;6.512;2023-06-10T15:08:13;9.60;;;2.70;;
65393;SDS011;52002;49.760;6.512;2023-06-10T15:10:38;2.50;;;2.30;;
65393;SDS011;52002;49.760;6.512;2023-06-10T15:13:04;2.60;;;2.40;;
65393;SDS011;52002;49.760;6.512;2023-06-10T15:15:30;3.60;;;2.20;;